sensor_id;sensor_type;location;lat;lon;timestamp;P1;durP1;ratioP1;P2;durP2;ratioP2
36253;SDS011;22291;52.250;21.228;2024-03-23T00:53:38;39.10;;;20.08;;
36253;SDS011;22291;52.250;21.228;2024-03-23T00:56:05;35.45;;;19.55;;
36253;SDS011;22291;52.250;21.228;2024-03-23T00:58:31;32.98;;;19.02;;
36253;SDS011;22291;52.250;21.228;2024-03-23T01:00:57;38.53;;;22.58;;
36253;SDS011;22291;52.250;21.228;2024-03-23T01:03:23;40.90;;;20.88;;
36253;SDS011;22291;52.250;21.228;2024-03-23T01:05:49;38.88;;;20.90;;
36253;SDS011;22291;52.250;21.228;2024-03-23T01:08:15;38.67;;;20.62;;
36253;SDS011;22291;52.250;21.228;2024-03-23T01:10:41;39.00;;;20.88;;
36253;SDS011;22291;52.250;21.228;2024-03-23T01:13:08;37.15;;;20.20;;
36253;SDS011;22291;52.250;21.228;2024-03-23T01:15:34;36.63;;;21.20;;
36253;SDS011;22291;52.250;21.228;2024-03-23T01:18:01;38.78;;;21.07;;
36253;SDS011;22291;52.250;21.228;2024-03-23T01:20:27;38.85;;;22.62;;
36253;SDS011;22291;52.250;21.228;2024-03-23T01:22:53;42.98;;;21.77;;
36253;SDS011;22291;52.250;21.228;2024-03-23T01:25:19;41.90;;;22.25;;
36253;SDS011;22291;52.250;21.228;2024-03-23T01:27:45;36.90;;;21.10;;
36253;SDS011;22291;52.250;21.228;2024-03-23T01:30:12;39.98;;;23.00;;
36253;SDS011;22291;52.250;21.228;2024-03-23T01:32:39;37.83;;;21.95;;
36253;SDS011;22291;52.250;21.228;2024-03-23T01:35:05;43.13;;;23.30;;
36253;SDS011;22291;52.250;21.228;2024-03-23T01:37:32;39.03;;;21.10;;
36253;SDS011;22291;52.250;21.228;2024-03-23T01:39:58;41.00;;;21.73;;
36253;SDS011;22291;52.250;21.228;2024-03-23T01:42:24;42.40;;;22.10;;
36253;SDS011;22291;52.250;21.228;2024-03-23T01:44:51;40.58;;;22.93;;
36253;SDS011;22291;52.250;21.228;2024-03-23T01:47:17;40.25;;;22.10;;
36253;SDS011;22291;52.250;21.228;2024-03-23T01:49:43;44.23;;;22.62;;
36253;SDS011;22291;52.250;21.228;2024-03-23T01:52:09;43.15;;;23.47;;
36253;SDS011;22291;52.250;21.228;2024-03-23T01:54:35;39.35;;;22.20;;
36253;SDS011;22291;52.250;21.228;2024-03-23T01:57:03;42.95;;;22.00;;
36253;SDS011;22291;52.250;21.228;2024-03-23T01:59:31;40.15;;;22.22;;
36253;SDS011;22291;52.250;21.228;2024-03-23T02:01:58;45.38;;;24.50;;
36253;SDS011;22291;52.250;21.228;2024-03-23T02:04:24;40.80;;;24.05;;
36253;SDS011;22291;52.250;21.228;2024-03-23T02:06:50;44.93;;;24.23;;
36253;SDS011;22291;52.250;21.228;2024-03-23T02:09:17;44.55;;;23.73;;
36253;SDS011;22291;52.250;21.228;2024-03-23T02:11:44;45.58;;;24.37;;
36253;SDS011;22291;52.250;21.228;2024-03-23T02:14:10;43.13;;;23.25;;
36253;SDS011;22291;52.250;21.228;2024-03-23T02:16:36;42.00;;;24.20;;
36253;SDS011;22291;52.250;21.228;2024-03-23T02:19:02;46.30;;;24.92;;
36253;SDS011;22291;52.250;21.228;2024-03-23T02:21:29;49.88;;;25.48;;
36253;SDS011;22291;52.250;21.228;2024-03-23T02:23:58;43.95;;;24.50;;
36253;SDS011;22291;52.250;21.228;2024-03-23T02:26:26;48.97;;;24.90;;
36253;SDS011;22291;52.250;21.228;2024-03-23T02:28:52;46.00;;;24.20;;
36253;SDS011;22291;52.250;21.228;2024-03-23T02:31:18;50.65;;;26.52;;
36253;SDS011;22291;52.250;21.228;2024-03-23T02:33:44;49.42;;;25.12;;
36253;SDS011;22291;52.250;21.228;2024-03-23T02:36:10;46.50;;;24.50;;
36253;SDS011;22291;52.250;21.228;2024-03-23T02:38:37;47.88;;;26.25;;
36253;SDS011;22291;52.250;21.228;2024-03-23T02:41:03;47.75;;;25.12;;
36253;SDS011;22291;52.250;21.228;2024-03-23T02:43:30;45.83;;;25.80;;
36253;SDS011;22291;52.250;21.228;2024-03-23T02:45:56;48.17;;;26.12;;
36253;SDS011;22291;52.250;21.228;2024-03-23T02:48:23;50.25;;;25.92;;
36253;SDS011;22291;52.250;21.228;2024-03-23T02:50:49;49.90;;;28.23;;
36253;SDS011;22291;52.250;21.228;2024-03-23T02:53:16;48.90;;;26.23;;
36253;SDS011;22291;52.250;21.228;2024-03-23T02:55:43;49.13;;;25.95;;
36253;SDS011;22291;52.250;21.228;2024-03-23T02:58:10;51.28;;;27.05;;
36253;SDS011;22291;52.250;21.228;2024-03-23T03:00:37;49.15;;;25.02;;
36253;SDS011;22291;52.250;21.228;2024-03-23T03:03:03;45.80;;;25.82;;
36253;SDS011;22291;52.250;21.228;2024-03-23T03:05:30;47.45;;;26.82;;
36253;SDS011;22291;52.250;21.228;2024-03-23T03:07:56;50.67;;;26.73;;
36253;SDS011;22291;52.250;21.228;2024-03-23T03:10:22;54.80;;;27.80;;
36253;SDS011;22291;52.250;21.228;2024-03-23T03:12:49;49.33;;;26.62;;
36253;SDS011;22291;52.250;21.228;2024-03-23T03:15:15;53.98;;;27.50;;
36253;SDS011;22291;52.250;21.228;2024-03-23T03:17:41;45.35;;;26.82;;
36253;SDS011;22291;52.250;21.228;2024-03-23T03:20:07;51.55;;;27.62;;
36253;SDS011;22291;52.250;21.228;2024-03-23T03:22:36;50.40;;;27.00;;
36253;SDS011;22291;52.250;21.228;2024-03-23T03:25:02;53.13;;;26.75;;
36253;SDS011;22291;52.250;21.228;2024-03-23T03:27:29;52.67;;;27.70;;
36253;SDS011;22291;52.250;21.228;2024-03-23T03:29:55;49.63;;;27.82;;
36253;SDS011;22291;52.250;21.228;2024-03-23T03:32:21;49.13;;;27.45;;
36253;SDS011;22291;52.250;21.228;2024-03-23T03:34:47;52.48;;;27.58;;
36253;SDS011;22291;52.250;21.228;2024-03-23T03:37:15;51.18;;;27.77;;
36253;SDS011;22291;52.250;21.228;2024-03-23T03:39:41;53.05;;;28.75;;
36253;SDS011;22291;52.250;21.228;2024-03-23T03:42:08;50.03;;;28.52;;
36253;SDS011;22291;52.250;21.228;2024-03-23T03:44:34;50.67;;;27.32;;
36253;SDS011;22291;52.250;21.228;2024-03-23T03:47:02;52.20;;;29.02;;
36253;SDS011;22291;52.250;21.228;2024-03-23T03:49:31;48.83;;;27.27;;
36253;SDS011;22291;52.250;21.228;2024-03-23T03:51:58;52.90;;;27.48;;
36253;SDS011;22291;52.250;21.228;2024-03-23T03:54:24;51.10;;;26.68;;
36253;SDS011;22291;52.250;21.228;2024-03-23T03:56:50;50.45;;;27.22;;
36253;SDS011;22291;52.250;21.228;2024-03-23T03:59:17;50.05;;;27.22;;
36253;SDS011;22291;52.250;21.228;2024-03-23T04:01:46;49.77;;;26.65;;
36253;SDS011;22291;52.250;21.228;2024-03-23T04:04:12;44.60;;;26.55;;
36253;SDS011;22291;52.250;21.228;2024-03-23T04:06:40;44.50;;;26.37;;
36253;SDS011;22291;52.250;21.228;2024-03-23T04:09:06;53.65;;;27.32;;
36253;SDS011;22291;52.250;21.228;2024-03-23T04:11:32;43.90;;;25.55;;
36253;SDS011;22291;52.250;21.228;2024-03-23T04:13:59;45.50;;;25.97;;
36253;SDS011;22291;52.250;21.228;2024-03-23T04:16:31;44.77;;;26.25;;
36253;SDS011;22291;52.250;21.228;2024-03-23T04:18:55;44.13;;;26.33;;
36253;SDS011;22291;52.250;21.228;2024-03-23T04:21:21;46.33;;;26.15;;
36253;SDS011;22291;52.250;21.228;2024-03-23T04:23:49;45.10;;;26.15;;
36253;SDS011;22291;52.250;21.228;2024-03-23T04:26:15;44.40;;;26.07;;
36253;SDS011;22291;52.250;21.228;2024-03-23T04:28:43;44.25;;;24.90;;
36253;SDS011;22291;52.250;21.228;2024-03-23T04:31:11;45.88;;;25.70;;
36253;SDS011;22291;52.250;21.228;2024-03-23T04:33:37;41.83;;;24.67;;
36253;SDS011;22291;52.250;21.228;2024-03-23T04:36:03;45.80;;;24.10;;
36253;SDS011;22291;52.250;21.228;2024-03-23T04:38:33;48.45;;;26.68;;
36253;SDS011;22291;52.250;21.228;2024-03-23T04:41:01;47.67;;;25.23;;
36253;SDS011;22291;52.250;21.228;2024-03-23T04:43:29;45.92;;;25.48;;
36253;SDS011;22291;52.250;21.228;2024-03-23T04:45:55;46.68;;;25.43;;
36253;SDS011;22291;52.250;21.228;2024-03-23T04:48:21;46.55;;;25.20;;
36253;SDS011;22291;52.250;21.228;2024-03-23T04:50:54;43.08;;;25.60;;
36253;SDS011;22291;52.250;21.228;2024-03-23T04:53:24;45.73;;;25.88;;
36253;SDS011;22291;52.250;21.228;2024-03-23T04:58:22;40.25;;;23.83;;
36253;SDS011;22291;52.250;21.228;2024-03-23T05:00:55;46.25;;;25.27;;
36253;SDS011;22291;52.250;21.228;2024-03-23T05:03:23;43.80;;;24.87;;
36253;SDS011;22291;52.250;21.228;2024-03-23T05:08:18;40.78;;;23.45;;
36253;SDS011;22291;52.250;21.228;2024-03-23T05:10:45;44.75;;;24.27;;
36253;SDS011;22291;52.250;21.228;2024-03-23T05:13:13;47.05;;;25.88;;
36253;SDS011;22291;52.250;21.228;2024-03-23T05:15:39;44.83;;;24.85;;
36253;SDS011;22291;52.250;21.228;2024-03-23T05:18:05;47.53;;;25.88;;
36253;SDS011;22291;52.250;21.228;2024-03-23T05:20:34;53.28;;;27.48;;
36253;SDS011;22291;52.250;21.228;2024-03-23T05:23:00;49.98;;;27.77;;
36253;SDS011;22291;52.250;21.228;2024-03-23T05:25:26;49.42;;;27.50;;
36253;SDS011;22291;52.250;21.228;2024-03-23T05:27:52;50.67;;;27.48;;
36253;SDS011;22291;52.250;21.228;2024-03-23T05:30:21;51.28;;;27.25;;
36253;SDS011;22291;52.250;21.228;2024-03-23T05:32:47;53.75;;;28.60;;
36253;SDS011;22291;52.250;21.228;2024-03-23T05:35:13;56.45;;;30.48;;
36253;SDS011;22291;52.250;21.228;2024-03-23T05:37:40;58.17;;;29.82;;
36253;SDS011;22291;52.250;21.228;2024-03-23T05:40:06;53.50;;;29.57;;
36253;SDS011;22291;52.250;21.228;2024-03-23T05:42:35;55.80;;;29.32;;
36253;SDS011;22291;52.250;21.228;2024-03-23T05:45:03;54.27;;;29.77;;
36253;SDS011;22291;52.250;21.228;2024-03-23T05:47:33;52.55;;;28.87;;
36253;SDS011;22291;52.250;21.228;2024-03-23T05:49:59;54.45;;;30.20;;
36253;SDS011;22291;52.250;21.228;2024-03-23T05:52:28;56.80;;;30.60;;
36253;SDS011;22291;52.250;21.228;2024-03-23T05:54:56;54.65;;;30.40;;
36253;SDS011;22291;52.250;21.228;2024-03-23T05:57:24;55.17;;;29.72;;
36253;SDS011;22291;52.250;21.228;2024-03-23T05:59:52;49.58;;;29.27;;
36253;SDS011;22291;52.250;21.228;2024-03-23T06:02:18;53.33;;;29.37;;
36253;SDS011;22291;52.250;21.228;2024-03-23T06:04:46;54.42;;;29.90;;
36253;SDS011;22291;52.250;21.228;2024-03-23T06:07:14;55.55;;;30.85;;
36253;SDS011;22291;52.250;21.228;2024-03-23T06:09:41;54.77;;;31.27;;
36253;SDS011;22291;52.250;21.228;2024-03-23T06:12:09;55.08;;;30.52;;
36253;SDS011;22291;52.250;21.228;2024-03-23T06:14:35;55.23;;;29.80;;
36253;SDS011;22291;52.250;21.228;2024-03-23T06:17:01;57.15;;;32.48;;
36253;SDS011;22291;52.250;21.228;2024-03-23T06:19:29;54.60;;;30.70;;
36253;SDS011;22291;52.250;21.228;2024-03-23T06:21:55;55.90;;;30.37;;
36253;SDS011;22291;52.250;21.228;2024-03-23T06:24:22;61.02;;;32.80;;
36253;SDS011;22291;52.250;21.228;2024-03-23T06:26:51;53.50;;;30.55;;
36253;SDS011;22291;52.250;21.228;2024-03-23T06:29:18;61.45;;;31.77;;
36253;SDS011;22291;52.250;21.228;2024-03-23T06:31:44;58.00;;;31.12;;
36253;SDS011;22291;52.250;21.228;2024-03-23T06:34:12;62.50;;;31.95;;
36253;SDS011;22291;52.250;21.228;2024-03-23T06:36:38;62.17;;;32.38;;
36253;SDS011;22291;52.250;21.228;2024-03-23T06:39:04;58.40;;;30.90;;
36253;SDS011;22291;52.250;21.228;2024-03-23T06:41:32;56.95;;;31.30;;
36253;SDS011;22291;52.250;21.228;2024-03-23T06:43:58;62.95;;;32.90;;
36253;SDS011;22291;52.250;21.228;2024-03-23T06:46:24;58.55;;;31.90;;
36253;SDS011;22291;52.250;21.228;2024-03-23T06:48:50;64.62;;;33.53;;
36253;SDS011;22291;52.250;21.228;2024-03-23T06:51:16;64.77;;;34.33;;
36253;SDS011;22291;52.250;21.228;2024-03-23T06:53:43;66.25;;;33.15;;
36253;SDS011;22291;52.250;21.228;2024-03-23T06:56:09;64.20;;;33.98;;
36253;SDS011;22291;52.250;21.228;2024-03-23T06:58:35;63.10;;;33.92;;
36253;SDS011;22291;52.250;21.228;2024-03-23T07:01:01;66.85;;;33.75;;
36253;SDS011;22291;52.250;21.228;2024-03-23T07:03:28;62.67;;;32.42;;
36253;SDS011;22291;52.250;21.228;2024-03-23T07:05:57;63.30;;;33.75;;
36253;SDS011;22291;52.250;21.228;2024-03-23T07:08:25;60.95;;;31.42;;
36253;SDS011;22291;52.250;21.228;2024-03-23T07:10:51;59.20;;;30.23;;
36253;SDS011;22291;52.250;21.228;2024-03-23T07:13:17;56.88;;;30.90;;
36253;SDS011;22291;52.250;21.228;2024-03-23T07:15:43;53.42;;;30.10;;
36253;SDS011;22291;52.250;21.228;2024-03-23T07:18:09;63.35;;;30.82;;
36253;SDS011;22291;52.250;21.228;2024-03-23T07:20:35;60.58;;;29.55;;
36253;SDS011;22291;52.250;21.228;2024-03-23T07:23:01;54.58;;;28.60;;
36253;SDS011;22291;52.250;21.228;2024-03-23T07:25:27;59.38;;;30.52;;
36253;SDS011;22291;52.250;21.228;2024-03-23T07:27:56;57.73;;;29.80;;
36253;SDS011;22291;52.250;21.228;2024-03-23T07:30:24;55.25;;;30.27;;
36253;SDS011;22291;52.250;21.228;2024-03-23T07:32:50;51.70;;;28.42;;
36253;SDS011;22291;52.250;21.228;2024-03-23T07:35:16;60.50;;;30.70;;
36253;SDS011;22291;52.250;21.228;2024-03-23T07:37:43;60.67;;;29.35;;
36253;SDS011;22291;52.250;21.228;2024-03-23T07:40:13;54.55;;;29.45;;
36253;SDS011;22291;52.250;21.228;2024-03-23T07:42:40;50.40;;;27.77;;
36253;SDS011;22291;52.250;21.228;2024-03-23T07:45:06;55.40;;;29.12;;
36253;SDS011;22291;52.250;21.228;2024-03-23T07:47:35;53.85;;;28.17;;
36253;SDS011;22291;52.250;21.228;2024-03-23T07:50:01;52.38;;;27.30;;
36253;SDS011;22291;52.250;21.228;2024-03-23T07:52:30;48.58;;;26.90;;
36253;SDS011;22291;52.250;21.228;2024-03-23T07:54:56;51.55;;;26.52;;
36253;SDS011;22291;52.250;21.228;2024-03-23T07:57:22;44.63;;;25.50;;
36253;SDS011;22291;52.250;21.228;2024-03-23T07:59:48;48.95;;;26.77;;
36253;SDS011;22291;52.250;21.228;2024-03-23T08:02:15;43.23;;;25.62;;
36253;SDS011;22291;52.250;21.228;2024-03-23T08:04:41;49.33;;;27.52;;
36253;SDS011;22291;52.250;21.228;2024-03-23T08:07:07;46.85;;;26.33;;
36253;SDS011;22291;52.250;21.228;2024-03-23T08:09:33;46.35;;;27.02;;
36253;SDS011;22291;52.250;21.228;2024-03-23T08:11:59;46.90;;;26.30;;
36253;SDS011;22291;52.250;21.228;2024-03-23T08:14:25;47.83;;;25.32;;
36253;SDS011;22291;52.250;21.228;2024-03-23T08:16:54;43.08;;;25.97;;
36253;SDS011;22291;52.250;21.228;2024-03-23T08:19:20;48.60;;;26.85;;
36253;SDS011;22291;52.250;21.228;2024-03-23T08:21:47;50.10;;;26.30;;
36253;SDS011;22291;52.250;21.228;2024-03-23T08:24:15;48.38;;;25.48;;
36253;SDS011;22291;52.250;21.228;2024-03-23T08:26:41;49.27;;;26.42;;
36253;SDS011;22291;52.250;21.228;2024-03-23T08:29:07;50.52;;;27.70;;
36253;SDS011;22291;52.250;21.228;2024-03-23T08:31:33;53.35;;;27.00;;
36253;SDS011;22291;52.250;21.228;2024-03-23T08:34:00;44.83;;;25.48;;
36253;SDS011;22291;52.250;21.228;2024-03-23T08:36:30;48.00;;;26.02;;
36253;SDS011;22291;52.250;21.228;2024-03-23T08:38:56;52.78;;;26.82;;
36253;SDS011;22291;52.250;21.228;2024-03-23T08:41:22;50.65;;;27.15;;
36253;SDS011;22291;52.250;21.228;2024-03-23T08:43:49;55.67;;;27.45;;
36253;SDS011;22291;52.250;21.228;2024-03-23T08:46:17;46.95;;;25.05;;
36253;SDS011;22291;52.250;21.228;2024-03-23T08:48:45;50.15;;;25.02;;
36253;SDS011;22291;52.250;21.228;2024-03-23T08:51:15;46.98;;;25.90;;
36253;SDS011;22291;52.250;21.228;2024-03-23T08:53:43;47.35;;;25.60;;
36253;SDS011;22291;52.250;21.228;2024-03-23T08:56:13;45.78;;;26.02;;
36253;SDS011;22291;52.250;21.228;2024-03-23T08:58:39;53.42;;;25.37;;
36253;SDS011;22291;52.250;21.228;2024-03-23T09:01:07;45.43;;;24.55;;
36253;SDS011;22291;52.250;21.228;2024-03-23T09:03:39;49.55;;;25.05;;
36253;SDS011;22291;52.250;21.228;2024-03-23T09:06:08;47.50;;;26.25;;
36253;SDS011;22291;52.250;21.228;2024-03-23T09:08:39;45.58;;;25.32;;
36253;SDS011;22291;52.250;21.228;2024-03-23T09:11:08;49.27;;;25.08;;
36253;SDS011;22291;52.250;21.228;2024-03-23T09:13:37;49.83;;;26.82;;
36253;SDS011;22291;52.250;21.228;2024-03-23T09:18:36;50.70;;;26.37;;
36253;SDS011;22291;52.250;21.228;2024-03-23T09:21:10;46.58;;;25.85;;
36253;SDS011;22291;52.250;21.228;2024-03-23T09:23:40;40.92;;;23.65;;
36253;SDS011;22291;52.250;21.228;2024-03-23T09:26:10;35.45;;;20.70;;
36253;SDS011;22291;52.250;21.228;2024-03-23T09:28:39;31.73;;;20.02;;
36253;SDS011;22291;52.250;21.228;2024-03-23T09:31:06;31.52;;;20.17;;
36253;SDS011;22291;52.250;21.228;2024-03-23T09:33:37;40.15;;;20.50;;
36253;SDS011;22291;52.250;21.228;2024-03-23T09:36:03;32.88;;;19.82;;
36253;SDS011;22291;52.250;21.228;2024-03-23T09:38:34;34.53;;;19.05;;
36253;SDS011;22291;52.250;21.228;2024-03-23T09:41:06;35.10;;;20.55;;
36253;SDS011;22291;52.250;21.228;2024-03-23T09:43:37;36.75;;;20.27;;
36253;SDS011;22291;52.250;21.228;2024-03-23T09:46:04;30.27;;;18.90;;
36253;SDS011;22291;52.250;21.228;2024-03-23T09:48:32;29.07;;;18.67;;
36253;SDS011;22291;52.250;21.228;2024-03-23T09:53:32;26.77;;;16.30;;
36253;SDS011;22291;52.250;21.228;2024-03-23T09:55:59;28.95;;;16.02;;
36253;SDS011;22291;52.250;21.228;2024-03-23T09:58:25;26.95;;;16.62;;
36253;SDS011;22291;52.250;21.228;2024-03-23T10:00:51;23.95;;;15.10;;
36253;SDS011;22291;52.250;21.228;2024-03-23T10:03:17;27.00;;;16.67;;
36253;SDS011;22291;52.250;21.228;2024-03-23T10:05:45;24.90;;;16.02;;
36253;SDS011;22291;52.250;21.228;2024-03-23T10:10:46;24.92;;;15.30;;
36253;SDS011;22291;52.250;21.228;2024-03-23T10:13:25;31.42;;;17.45;;
36253;SDS011;22291;52.250;21.228;2024-03-23T10:15:59;23.95;;;14.78;;
36253;SDS011;22291;52.250;21.228;2024-03-23T10:18:25;24.92;;;13.75;;
36253;SDS011;22291;52.250;21.228;2024-03-23T10:21:27;20.02;;;13.35;;
36253;SDS011;22291;52.250;21.228;2024-03-23T10:23:39;23.52;;;12.53;;
36253;SDS011;22291;52.250;21.228;2024-03-23T10:26:13;18.73;;;11.55;;
36253;SDS011;22291;52.250;21.228;2024-03-23T10:28:55;22.62;;;12.82;;
36253;SDS011;22291;52.250;21.228;2024-03-23T10:31:30;19.65;;;12.43;;
36253;SDS011;22291;52.250;21.228;2024-03-23T10:33:58;19.42;;;11.93;;
36253;SDS011;22291;52.250;21.228;2024-03-23T10:36:26;19.25;;;12.78;;
36253;SDS011;22291;52.250;21.228;2024-03-23T10:38:56;17.95;;;11.40;;
36253;SDS011;22291;52.250;21.228;2024-03-23T10:43:58;21.33;;;11.20;;
36253;SDS011;22291;52.250;21.228;2024-03-23T10:46:27;18.05;;;11.63;;
36253;SDS011;22291;52.250;21.228;2024-03-23T10:48:57;17.55;;;10.98;;
36253;SDS011;22291;52.250;21.228;2024-03-23T10:51:23;18.17;;;10.45;;
36253;SDS011;22291;52.250;21.228;2024-03-23T10:53:51;18.07;;;11.12;;
36253;SDS011;22291;52.250;21.228;2024-03-23T10:56:21;13.38;;;10.03;;
36253;SDS011;22291;52.250;21.228;2024-03-23T10:58:51;13.90;;;9.73;;
36253;SDS011;22291;52.250;21.228;2024-03-23T11:03:47;13.98;;;9.53;;
36253;SDS011;22291;52.250;21.228;2024-03-23T11:06:33;14.87;;;8.78;;
36253;SDS011;22291;52.250;21.228;2024-03-23T11:09:01;14.95;;;9.18;;
36253;SDS011;22291;52.250;21.228;2024-03-23T11:11:28;11.90;;;9.00;;
36253;SDS011;22291;52.250;21.228;2024-03-23T11:13:56;12.47;;;8.68;;
36253;SDS011;22291;52.250;21.228;2024-03-23T11:16:26;11.80;;;8.38;;
36253;SDS011;22291;52.250;21.228;2024-03-23T11:22:05;14.17;;;8.73;;
36253;SDS011;22291;52.250;21.228;2024-03-23T11:24:33;14.93;;;9.13;;
36253;SDS011;22291;52.250;21.228;2024-03-23T11:27:00;34.98;;;25.25;;
36253;SDS011;22291;52.250;21.228;2024-03-23T11:31:55;13.62;;;8.43;;
36253;SDS011;22291;52.250;21.228;2024-03-23T11:34:26;11.00;;;7.70;;
36253;SDS011;22291;52.250;21.228;2024-03-23T11:37:02;11.83;;;8.23;;
36253;SDS011;22291;52.250;21.228;2024-03-23T11:39:27;13.43;;;8.98;;
36253;SDS011;22291;52.250;21.228;2024-03-23T11:41:55;13.18;;;7.85;;
36253;SDS011;22291;52.250;21.228;2024-03-23T11:44:27;11.75;;;8.00;;
36253;SDS011;22291;52.250;21.228;2024-03-23T11:46:55;11.63;;;8.25;;
36253;SDS011;22291;52.250;21.228;2024-03-23T11:49:37;11.90;;;7.33;;
36253;SDS011;22291;52.250;21.228;2024-03-23T11:52:05;11.50;;;7.50;;
36253;SDS011;22291;52.250;21.228;2024-03-23T11:54:31;11.35;;;7.87;;
36253;SDS011;22291;52.250;21.228;2024-03-23T11:56:58;10.20;;;6.67;;
36253;SDS011;22291;52.250;21.228;2024-03-23T11:59:40;9.15;;;6.60;;
36253;SDS011;22291;52.250;21.228;2024-03-23T12:02:08;8.00;;;6.70;;
36253;SDS011;22291;52.250;21.228;2024-03-23T12:04:40;9.88;;;7.45;;
36253;SDS011;22291;52.250;21.228;2024-03-23T12:07:20;11.30;;;7.70;;
36253;SDS011;22291;52.250;21.228;2024-03-23T12:10:21;12.68;;;7.55;;
36253;SDS011;22291;52.250;21.228;2024-03-23T12:12:33;8.90;;;6.80;;
36253;SDS011;22291;52.250;21.228;2024-03-23T12:15:08;9.60;;;7.20;;
36253;SDS011;22291;52.250;21.228;2024-03-23T12:17:36;11.18;;;6.58;;
36253;SDS011;22291;52.250;21.228;2024-03-23T12:20:06;8.73;;;5.92;;
36253;SDS011;22291;52.250;21.228;2024-03-23T12:22:33;8.45;;;6.00;;
36253;SDS011;22291;52.250;21.228;2024-03-23T12:25:01;9.08;;;5.83;;
36253;SDS011;22291;52.250;21.228;2024-03-23T12:27:32;8.93;;;6.47;;
36253;SDS011;22291;52.250;21.228;2024-03-23T12:29:58;9.95;;;6.60;;
36253;SDS011;22291;52.250;21.228;2024-03-23T12:32:26;9.03;;;6.25;;
36253;SDS011;22291;52.250;21.228;2024-03-23T12:34:52;8.25;;;5.80;;
36253;SDS011;22291;52.250;21.228;2024-03-23T12:37:18;10.60;;;6.28;;
36253;SDS011;22291;52.250;21.228;2024-03-23T12:39:45;9.33;;;6.45;;
36253;SDS011;22291;52.250;21.228;2024-03-23T12:42:11;9.13;;;6.53;;
36253;SDS011;22291;52.250;21.228;2024-03-23T12:44:39;7.33;;;6.28;;
36253;SDS011;22291;52.250;21.228;2024-03-23T12:47:05;10.50;;;6.22;;
36253;SDS011;22291;52.250;21.228;2024-03-23T12:49:31;10.43;;;7.50;;
36253;SDS011;22291;52.250;21.228;2024-03-23T12:51:57;12.40;;;7.25;;
36253;SDS011;22291;52.250;21.228;2024-03-23T12:54:25;9.68;;;6.78;;
36253;SDS011;22291;52.250;21.228;2024-03-23T12:56:55;12.53;;;7.28;;
36253;SDS011;22291;52.250;21.228;2024-03-23T12:59:22;11.35;;;6.80;;
36253;SDS011;22291;52.250;21.228;2024-03-23T13:01:48;8.88;;;5.87;;
36253;SDS011;22291;52.250;21.228;2024-03-23T13:04:14;10.72;;;7.30;;
36253;SDS011;22291;52.250;21.228;2024-03-23T13:06:42;9.78;;;7.22;;
36253;SDS011;22291;52.250;21.228;2024-03-23T13:09:08;9.45;;;6.78;;
36253;SDS011;22291;52.250;21.228;2024-03-23T13:11:34;10.48;;;7.37;;
36253;SDS011;22291;52.250;21.228;2024-03-23T13:14:00;9.05;;;6.67;;
36253;SDS011;22291;52.250;21.228;2024-03-23T13:16:26;13.45;;;6.37;;
36253;SDS011;22291;52.250;21.228;2024-03-23T13:18:53;13.60;;;7.75;;
36253;SDS011;22291;52.250;21.228;2024-03-23T13:21:19;8.73;;;6.95;;
36253;SDS011;22291;52.250;21.228;2024-03-23T13:23:48;11.30;;;6.85;;
36253;SDS011;22291;52.250;21.228;2024-03-23T13:26:16;9.65;;;6.83;;
36253;SDS011;22291;52.250;21.228;2024-03-23T13:28:42;9.53;;;6.50;;
36253;SDS011;22291;52.250;21.228;2024-03-23T13:31:10;10.20;;;6.60;;
36253;SDS011;22291;52.250;21.228;2024-03-23T13:33:37;9.10;;;5.95;;
36253;SDS011;22291;52.250;21.228;2024-03-23T13:36:09;7.10;;;5.80;;
36253;SDS011;22291;52.250;21.228;2024-03-23T13:38:35;9.45;;;6.12;;
36253;SDS011;22291;52.250;21.228;2024-03-23T13:41:01;7.50;;;5.37;;
36253;SDS011;22291;52.250;21.228;2024-03-23T13:43:32;9.38;;;6.33;;
36253;SDS011;22291;52.250;21.228;2024-03-23T13:45:58;8.65;;;6.60;;
36253;SDS011;22291;52.250;21.228;2024-03-23T13:48:26;9.78;;;5.75;;
36253;SDS011;22291;52.250;21.228;2024-03-23T13:50:59;10.58;;;6.20;;
36253;SDS011;22291;52.250;21.228;2024-03-23T13:53:29;8.45;;;6.30;;
36253;SDS011;22291;52.250;21.228;2024-03-23T13:55:59;7.53;;;5.22;;
36253;SDS011;22291;52.250;21.228;2024-03-23T13:58:25;10.23;;;5.85;;
36253;SDS011;22291;52.250;21.228;2024-03-23T14:00:56;7.45;;;5.72;;
36253;SDS011;22291;52.250;21.228;2024-03-23T14:03:24;8.08;;;6.28;;
36253;SDS011;22291;52.250;21.228;2024-03-23T14:05:50;9.10;;;6.17;;
36253;SDS011;22291;52.250;21.228;2024-03-23T14:08:18;7.15;;;5.37;;
36253;SDS011;22291;52.250;21.228;2024-03-23T14:10:46;8.63;;;5.72;;
36253;SDS011;22291;52.250;21.228;2024-03-23T14:13:12;9.00;;;5.72;;
36253;SDS011;22291;52.250;21.228;2024-03-23T14:15:39;8.95;;;5.87;;
36253;SDS011;22291;52.250;21.228;2024-03-23T14:18:08;9.50;;;5.97;;
36253;SDS011;22291;52.250;21.228;2024-03-23T14:20:34;9.00;;;5.80;;
36253;SDS011;22291;52.250;21.228;2024-03-23T14:23:05;8.75;;;5.37;;
36253;SDS011;22291;52.250;21.228;2024-03-23T14:25:31;10.40;;;5.65;;
36253;SDS011;22291;52.250;21.228;2024-03-23T14:27:58;7.72;;;5.10;;
36253;SDS011;22291;52.250;21.228;2024-03-23T14:30:26;7.58;;;5.55;;
36253;SDS011;22291;52.250;21.228;2024-03-23T14:32:52;7.15;;;5.70;;
36253;SDS011;22291;52.250;21.228;2024-03-23T14:35:21;8.78;;;5.65;;
36253;SDS011;22291;52.250;21.228;2024-03-23T14:37:49;7.20;;;5.20;;
36253;SDS011;22291;52.250;21.228;2024-03-23T14:40:16;11.68;;;5.95;;
36253;SDS011;22291;52.250;21.228;2024-03-23T14:42:42;11.05;;;6.97;;
36253;SDS011;22291;52.250;21.228;2024-03-23T14:45:09;7.35;;;5.55;;
36253;SDS011;22291;52.250;21.228;2024-03-23T14:47:37;10.00;;;5.67;;
36253;SDS011;22291;52.250;21.228;2024-03-23T14:50:06;9.80;;;5.25;;
36253;SDS011;22291;52.250;21.228;2024-03-23T14:52:35;9.75;;;5.40;;
36253;SDS011;22291;52.250;21.228;2024-03-23T14:55:07;8.08;;;5.05;;
36253;SDS011;22291;52.250;21.228;2024-03-23T14:57:34;9.10;;;6.78;;
36253;SDS011;22291;52.250;21.228;2024-03-23T15:00:07;8.80;;;6.30;;
36253;SDS011;22291;52.250;21.228;2024-03-23T15:02:38;7.22;;;5.20;;
36253;SDS011;22291;52.250;21.228;2024-03-23T15:05:08;7.12;;;5.62;;
36253;SDS011;22291;52.250;21.228;2024-03-23T15:07:36;13.22;;;7.17;;
36253;SDS011;22291;52.250;21.228;2024-03-23T15:12:35;26.12;;;18.37;;
36253;SDS011;22291;52.250;21.228;2024-03-23T15:15:01;81.72;;;67.75;;
36253;SDS011;22291;52.250;21.228;2024-03-23T15:17:31;14.33;;;9.38;;
36253;SDS011;22291;52.250;21.228;2024-03-23T15:20:01;12.23;;;7.95;;
36253;SDS011;22291;52.250;21.228;2024-03-23T15:22:31;12.80;;;8.80;;
36253;SDS011;22291;52.250;21.228;2024-03-23T15:25:00;12.85;;;8.65;;
36253;SDS011;22291;52.250;21.228;2024-03-23T15:27:26;13.20;;;8.95;;
36253;SDS011;22291;52.250;21.228;2024-03-23T15:29:53;14.53;;;9.70;;
36253;SDS011;22291;52.250;21.228;2024-03-23T15:32:25;13.10;;;10.10;;
36253;SDS011;22291;52.250;21.228;2024-03-23T15:34:51;13.93;;;9.90;;